createdAt,value
2019-05-18T00:01:15.692Z,5.03
2019-05-18T00:06:09.153Z,4.90
2019-05-18T00:11:03.271Z,4.70
2019-05-18T00:15:56.589Z,4.80
2019-05-18T00:20:49.955Z,4.73
2019-05-18T00:25:44.015Z,4.60
2019-05-18T00:30:37.340Z,4.93
2019-05-18T00:35:30.927Z,5.07
2019-05-18T00:40:24.242Z,5.03
2019-05-18T00:45:17.697Z,5.10
2019-05-18T00:50:11.028Z,5.60
2019-05-18T00:55:04.839Z,5.20
2019-05-18T00:59:58.144Z,5.37
2019-05-18T01:04:51.509Z,5.83
2019-05-18T01:09:44.873Z,6.37
2019-05-18T01:14:38.267Z,5.70
2019-05-18T01:19:31.606Z,5.90
2019-05-18T01:24:25.045Z,5.20
2019-05-18T01:29:18.417Z,5.33
2019-05-18T01:34:12.403Z,5.70
2019-05-18T01:39:05.765Z,4.93
2019-05-18T01:43:59.090Z,6.00
2019-05-18T01:48:52.459Z,5.57
2019-05-18T01:53:45.848Z,5.50
2019-05-18T01:58:39.299Z,6.27
2019-05-18T02:03:32.635Z,6.20
2019-05-18T02:08:26.048Z,6.13
2019-05-18T02:13:19.366Z,5.70
2019-05-18T02:18:12.689Z,5.63
2019-05-18T02:23:06.036Z,5.73
2019-05-18T02:27:59.575Z,5.13
2019-05-18T02:32:52.898Z,4.97
2019-05-18T02:37:46.340Z,5.77
2019-05-18T02:42:39.664Z,6.00
2019-05-18T02:47:33.088Z,6.07
2019-05-18T02:52:26.413Z,5.80
2019-05-18T02:57:19.848Z,5.50
2019-05-18T03:02:13.183Z,5.77
2019-05-18T03:07:06.493Z,5.60
2019-05-18T03:11:59.818Z,6.17
2019-05-18T03:16:53.371Z,6.13
2019-05-18T03:21:46.994Z,5.77
2019-05-18T03:26:40.312Z,5.43
2019-05-18T03:31:33.665Z,6.00
2019-05-18T03:36:27.190Z,6.20
2019-05-18T03:41:20.508Z,5.43
2019-05-18T03:46:13.957Z,5.63
2019-05-18T03:51:07.274Z,5.43
2019-05-18T03:56:00.711Z,5.90
2019-05-18T04:00:54.392Z,5.63
2019-05-18T04:05:47.734Z,5.50
2019-05-18T04:10:41.069Z,5.30
2019-05-18T04:15:34.516Z,4.67
2019-05-18T04:20:27.848Z,4.40
2019-05-18T04:25:21.309Z,4.95
2019-05-18T04:30:14.784Z,5.73
2019-05-18T04:35:08.135Z,6.10
2019-05-18T04:40:04.244Z,5.80
2019-05-18T04:44:57.864Z,5.57
2019-05-18T04:50:04.340Z,5.77
2019-05-18T04:54:44.550Z,5.90
2019-05-18T04:59:37.873Z,6.13
2019-05-18T05:04:31.385Z,6.40
2019-05-18T05:09:24.719Z,5.97
2019-05-18T05:14:18.055Z,6.10
2019-05-18T05:19:11.398Z,6.57
2019-05-18T05:24:04.724Z,6.47
2019-05-18T05:28:58.043Z,6.40
2019-05-18T05:33:51.377Z,6.87
2019-05-18T05:38:44.707Z,6.80
2019-05-18T05:43:38.052Z,6.80
2019-05-18T05:48:31.390Z,6.17
2019-05-18T05:53:24.713Z,7.00
2019-05-18T05:58:18.307Z,7.87
2019-05-18T06:03:11.612Z,6.93
2019-05-18T06:08:05.007Z,7.33
2019-05-18T06:12:58.350Z,7.90
2019-05-18T06:17:51.693Z,8.17
2019-05-18T06:22:45.055Z,7.20
2019-05-18T06:27:38.541Z,7.63
2019-05-18T06:32:31.852Z,8.67
2019-05-18T06:37:25.300Z,8.73
2019-05-18T06:42:18.972Z,8.27
2019-05-18T06:47:12.378Z,8.50
2019-05-18T06:52:05.719Z,8.50
2019-05-18T06:56:59.049Z,8.47
2019-05-18T07:01:52.393Z,8.30
2019-05-18T07:06:45.742Z,8.40
2019-05-18T07:11:39.084Z,9.03
2019-05-18T07:16:32.628Z,8.00
2019-05-18T07:21:25.974Z,8.20
2019-05-18T07:26:19.372Z,7.50
2019-05-18T07:31:12.700Z,5.93
2019-05-18T07:36:06.060Z,7.80
2019-05-18T07:40:59.404Z,7.10
2019-05-18T07:45:52.814Z,8.17
2019-05-18T07:50:46.231Z,6.30
2019-05-18T07:55:39.672Z,7.83
2019-05-18T08:00:33.011Z,5.40
2019-05-18T08:05:26.738Z,7.20
2019-05-18T08:10:24.564Z,10.40
2019-05-18T08:15:17.900Z,11.23
2019-05-18T08:20:11.219Z,10.43
2019-05-18T08:25:05.102Z,10.53
2019-05-18T08:29:58.453Z,11.53
2019-05-18T08:34:52.129Z,15.20
2019-05-18T08:39:45.951Z,13.87
2019-05-18T08:44:40.338Z,14.60
2019-05-18T08:49:34.290Z,15.00
2019-05-18T08:54:27.972Z,16.70
2019-05-18T08:59:21.379Z,15.87
2019-05-18T09:04:14.966Z,15.97
2019-05-18T09:09:08.359Z,17.20
2019-05-18T09:14:01.696Z,14.70
2019-05-18T09:18:55.010Z,15.60
2019-05-18T09:23:48.361Z,14.17
2019-05-18T09:28:41.845Z,15.97
2019-05-18T09:33:35.389Z,15.57
2019-05-18T09:38:28.931Z,14.87
2019-05-18T09:43:22.227Z,14.00
2019-05-18T09:48:15.677Z,15.73
2019-05-18T09:53:08.990Z,15.87
2019-05-18T09:58:02.470Z,14.70
2019-05-18T10:02:55.793Z,13.37
2019-05-18T10:07:49.194Z,12.13
2019-05-18T10:12:42.545Z,13.47
2019-05-18T10:17:35.975Z,12.37
2019-05-18T10:22:29.281Z,12.20
2019-05-18T10:27:22.728Z,10.70
2019-05-18T10:32:16.088Z,10.03
2019-05-18T10:37:09.496Z,11.00
2019-05-18T10:42:03.181Z,13.30
2019-05-18T10:46:56.875Z,15.13
2019-05-18T10:51:50.269Z,17.70
2019-05-18T10:56:43.950Z,15.17
2019-05-18T11:01:37.331Z,18.20
2019-05-18T11:06:30.985Z,19.80
2019-05-18T11:16:17.139Z,17.83
2019-05-18T11:21:10.718Z,18.90
2019-05-18T11:26:04.217Z,19.90
2019-05-18T11:30:57.563Z,21.40
2019-05-18T11:35:50.936Z,20.33
2019-05-18T11:40:44.422Z,19.67
2019-05-18T11:45:38.017Z,17.87
2019-05-18T11:50:31.352Z,18.70
2019-05-18T11:55:24.768Z,18.33
2019-05-18T12:00:18.119Z,17.30
2019-05-18T12:05:11.606Z,18.43
2019-05-18T12:10:05.439Z,18.27
2019-05-18T12:14:58.898Z,18.67
2019-05-18T12:19:52.243Z,19.93
2019-05-18T12:24:45.644Z,17.67
2019-05-18T12:29:38.943Z,17.93
2019-05-18T12:34:32.401Z,18.63
2019-05-18T12:39:25.760Z,20.13
2019-05-18T12:44:19.072Z,19.10
2019-05-18T12:49:12.408Z,20.53
2019-05-18T12:54:05.747Z,19.57
2019-05-18T12:58:59.072Z,19.87
2019-05-18T13:03:52.405Z,20.47
2019-05-18T13:08:45.848Z,19.70
2019-05-18T13:13:39.157Z,19.00
2019-05-18T13:18:32.834Z,18.67
2019-05-18T13:23:26.190Z,21.50
2019-05-18T13:28:19.577Z,21.50
2019-05-18T13:33:12.941Z,21.87
2019-05-18T13:38:06.340Z,22.83
2019-05-18T13:42:59.713Z,22.00
2019-05-18T13:47:53.101Z,23.47
2019-05-18T13:52:46.445Z,23.20
2019-05-18T13:57:40.173Z,22.20
2019-05-18T14:02:33.513Z,23.37
2019-05-18T14:07:26.933Z,23.17
2019-05-18T14:12:20.285Z,26.33
2019-05-18T14:17:13.619Z,24.40
2019-05-18T14:22:06.952Z,24.40
2019-05-18T14:27:00.737Z,25.13
2019-05-18T14:31:54.089Z,25.57
2019-05-18T14:36:47.513Z,27.07
2019-05-18T14:41:42.588Z,28.00
2019-05-18T14:46:34.596Z,28.83
2019-05-18T14:51:27.949Z,26.43
2019-05-18T14:56:21.320Z,24.87
2019-05-18T15:01:14.648Z,25.57
2019-05-18T15:06:07.993Z,25.23
2019-05-18T15:11:01.337Z,25.23
2019-05-18T15:15:54.836Z,27.40
2019-05-18T15:20:48.125Z,26.27
2019-05-18T15:25:50.043Z,25.20
2019-05-18T15:30:34.923Z,25.27
2019-05-18T15:35:28.342Z,25.30
2019-05-18T15:40:21.695Z,22.83
2019-05-18T15:45:15.151Z,12.70
2019-05-18T15:50:08.465Z,10.57
2019-05-18T15:55:01.878Z,9.73
2019-05-18T15:59:55.180Z,8.40
2019-05-18T16:04:48.658Z,7.57
2019-05-18T16:09:41.986Z,7.03
2019-05-18T16:14:35.434Z,6.23
2019-05-18T16:19:28.739Z,5.63
2019-05-18T16:24:22.146Z,5.50
2019-05-18T16:29:15.451Z,5.83
2019-05-18T16:34:08.780Z,5.40
2019-05-18T16:39:02.292Z,4.60
2019-05-18T16:43:55.698Z,4.13
2019-05-18T16:48:49.359Z,4.03
2019-05-18T16:53:42.700Z,3.97
2019-05-18T16:58:36.113Z,3.87
2019-05-18T17:03:29.479Z,3.50
2019-05-18T17:08:22.903Z,3.80
2019-05-18T17:13:16.254Z,4.07
2019-05-18T17:18:09.621Z,3.83
2019-05-18T17:23:03.433Z,3.80
2019-05-18T17:27:56.988Z,3.83
2019-05-18T17:32:50.332Z,3.93
2019-05-18T17:37:43.740Z,3.27
2019-05-18T17:42:37.073Z,3.33
2019-05-18T17:47:30.700Z,3.73
2019-05-18T17:52:24.051Z,3.10
2019-05-18T17:57:17.568Z,3.47
2019-05-18T18:02:10.907Z,3.17
2019-05-18T18:07:04.328Z,3.50
2019-05-18T18:11:57.664Z,3.07
2019-05-18T18:16:51.091Z,3.67
2019-05-18T18:21:44.438Z,2.60
2019-05-18T18:26:37.778Z,5.20
2019-05-18T18:31:32.056Z,6.50
2019-05-18T18:36:25.514Z,6.30
2019-05-18T18:41:18.879Z,6.77
2019-05-18T18:46:12.308Z,7.20
2019-05-18T18:51:05.671Z,7.07
2019-05-18T18:55:58.991Z,8.07
2019-05-18T19:00:52.325Z,9.67
2019-05-18T19:05:46.422Z,9.67
2019-05-18T19:10:39.811Z,10.63
2019-05-18T19:15:33.170Z,9.67
2019-05-18T19:20:26.523Z,11.03
2019-05-18T19:25:19.895Z,12.20
2019-05-18T19:30:13.257Z,12.17
2019-05-18T19:35:06.718Z,12.27
2019-05-18T19:40:00.065Z,12.40
2019-05-18T19:44:53.443Z,11.50
2019-05-18T19:49:46.811Z,10.40
2019-05-18T19:54:40.206Z,6.60
2019-05-18T19:59:33.558Z,5.33
2019-05-18T20:04:26.902Z,4.97
2019-05-18T20:09:20.222Z,4.10
2019-05-18T20:14:13.557Z,4.17
2019-05-18T20:19:06.902Z,3.87
2019-05-18T20:24:00.256Z,3.60
2019-05-18T20:28:56.562Z,3.97
2019-05-18T20:33:47.218Z,3.73
2019-05-18T20:38:40.542Z,3.17
2019-05-18T20:43:34.005Z,3.33
2019-05-18T20:48:27.690Z,3.73
2019-05-18T20:53:21.045Z,3.57
2019-05-18T20:58:14.460Z,4.00
2019-05-18T21:03:07.848Z,3.83
2019-05-18T21:08:02.122Z,3.70
2019-05-18T21:12:55.442Z,4.03
2019-05-18T21:17:48.876Z,4.10
2019-05-18T21:22:42.228Z,4.07
2019-05-18T21:27:35.977Z,4.60
2019-05-18T21:32:29.291Z,9.37
2019-05-18T21:37:22.708Z,11.37
2019-05-18T21:42:16.065Z,5.53
2019-05-18T21:47:09.503Z,4.87
2019-05-18T21:52:03.324Z,4.17
2019-05-18T21:56:56.809Z,4.60
2019-05-18T22:01:50.123Z,4.57
2019-05-18T22:06:43.582Z,4.43
2019-05-18T22:11:36.939Z,3.87
2019-05-18T22:16:30.276Z,3.17
2019-05-18T22:21:23.796Z,3.00
2019-05-18T22:26:17.297Z,2.40
2019-05-18T22:31:10.632Z,3.13
2019-05-18T22:36:04.305Z,2.80
2019-05-18T22:40:57.655Z,2.97
2019-05-18T22:45:51.311Z,3.23
2019-05-18T22:50:44.635Z,3.70
2019-05-18T22:55:37.995Z,3.40
2019-05-18T23:00:31.336Z,3.33
2019-05-18T23:05:24.853Z,3.30
2019-05-18T23:10:18.193Z,3.40
2019-05-18T23:15:11.546Z,3.80
2019-05-18T23:20:04.940Z,4.67
2019-05-18T23:24:58.785Z,4.40
2019-05-18T23:29:52.100Z,4.00
2019-05-18T23:34:45.443Z,4.10
2019-05-18T23:39:38.772Z,5.20
2019-05-18T23:44:32.143Z,5.07
2019-05-18T23:49:25.615Z,7.30
2019-05-18T23:54:18.957Z,7.30
2019-05-18T23:59:12.308Z,6.97
